Flight Track Log - Related Links

Times and Time Zones

All times are in EDT time to prevent confusion due to time zone crossing. See the SWA921 flight status page for this flight to view local times or setup timezone preferences in your user account.

Time Position Orientation Groundspeed Altitude Reporting Facility
EDT Latitude Longitude Course Direction KTS MPH feet Rate Location/Type
Sat 10:30:22 PM 39.7667 -104.7000 244° Southwest 239 275 8,300  Level Denver TRACON
Sat 10:31:22 PM 39.7500 -104.7833 255° West 292 336 10,600 2,171 Climbing Denver TRACON
Sat 10:32:07 PM 39.7575 -104.8736 276° West 318 366 12,100 2,660 Climbing Denver Center
Sat 10:33:08 PM 39.7386 -104.9964 259° West 360 414 15,300 2,826 Climbing Denver Center
Sat 10:34:08 PM 39.7019 -105.1194 249° West 369 425 17,800 2,777 Climbing Denver Center
Sat 10:35:00 PM 39.6467 -105.3032 244° Southwest  Level FlightAware Approximate
Sat 10:35:09 PM 39.6633 -105.2458 248° West 378 435 20,900  Level Denver Center
Sat 10:36:10 PM 39.6250 -105.3750 249° West 384 442 23,000 1,672 Climbing Denver Center
Sat 10:37:11 PM 39.5856 -105.5033 248° West 398 458 24,300 1,636 Climbing Denver Center
Sat 10:38:11 PM 39.5447 -105.6403 249° West 412 474 26,300 1,835 Climbing Denver Center
Sat 10:39:12 PM 39.5050 -105.7822 250° West 414 476 28,000 1,567 Climbing Denver Center
Sat 10:40:25 PM 39.4686 -105.9258 252° West 417 480 29,800 2,463 Climbing Denver Center
Sat 10:41:26 PM 39.4161 -106.1094 250° West 403 464 33,500 2,607 Climbing Denver Center
Sat 10:42:27 PM 39.3825 -106.2286 250° West 384 442 35,100 1,289 Climbing Denver Center
Sat 10:43:27 PM 39.3431 -106.3722 250° West 381 438 36,100 942 Climbing Denver Center
Sat 10:44:28 PM 39.3061 -106.4964 249° West 386 444 37,000 885 Climbing Denver Center
Sat 10:45:29 PM 39.2706 -106.6222 250° West 388 447 37,900 492 Climbing Denver Center
Sat 10:46:30 PM 39.2158 -106.7619 243° Southwest 394 453 38,000 50 Climbing Denver Center
Sat 10:47:30 PM 39.1458 -106.8697 230° Southwest 408 470 38,000  Level Denver Center
Sat 10:48:55 PM 39.0686 -106.9911 231° Southwest 395 455 38,000  Level Denver Center
Sat 10:49:56 PM 38.9794 -107.1303 231° Southwest 394 453 38,000  Level Denver Center
Sat 10:50:57 PM 38.9108 -107.2347 230° Southwest 396 456 38,000  Level Denver Center
Sat 10:51:58 PM 38.8339 -107.3528 230° Southwest 388 447 38,000  Level Denver Center
Sat 10:52:58 PM 38.7669 -107.4564 230° Southwest 393 452 38,000  Level Denver Center
Sat 10:53:59 PM 38.6994 -107.5583 230° Southwest 391 450 38,000  Level Denver Center
Sat 10:55:00 PM 38.6225 -107.6764 230° Southwest 387 445 38,000  Level Denver Center
Sat 10:56:01 PM 38.5575 -107.7750 230° Southwest 380 437 38,000  Level Denver Center
Sat 10:57:01 PM 38.4925 -107.8742 230° Southwest 380 437 38,000  Level Denver Center
Sat 10:58:02 PM 38.4161 -107.9875 229° Southwest 377 434 38,000  Level Denver Center
Sat 10:59:03 PM 38.3494 -108.0897 230° Southwest 387 445 38,000  Level Denver Center
Sat 11:00:04 PM 38.2819 -108.1875 229° Southwest 383 441 38,000  Level Denver Center
Sat 11:01:04 PM 38.2036 -108.3072 230° Southwest 389 448 38,000  Level Denver Center
Sat 11:02:05 PM 38.1369 -108.4067 230° Southwest 387 445 38,000  Level Denver Center
Sat 11:03:06 PM 38.0631 -108.5164 229° Southwest 383 441 38,000  Level Denver Center
Sat 11:04:06 PM 37.9964 -108.6125 229° Southwest 380 437 38,000  Level Denver Center
Sat 11:05:07 PM 37.9297 -108.7106 229° Southwest 381 438 38,000  Level Denver Center
Sat 11:06:08 PM 37.8519 -108.8264 230° Southwest 385 443 38,000  Level Denver Center
Sat 11:07:08 PM 37.7839 -108.9244 229° Southwest 388 447 38,000  Level Denver Center
Sat 11:08:09 PM 37.7158 -109.0247 229° Southwest 391 450 38,000  Level Denver Center
Sat 11:09:10 PM 37.6358 -109.1408 229° Southwest 393 452 38,000  Level Denver Center
Sat 11:10:10 PM 37.5661 -109.2422 229° Southwest 398 458 38,000  Level Denver Center
Sat 11:11:11 PM 37.4964 -109.3411 228° Southwest 397 457 38,000  Level Denver Center
Sat 11:12:12 PM 37.4153 -109.4594 229° Southwest 399 459 38,000  Level Denver Center
Sat 11:13:12 PM 37.3450 -109.5600 229° Southwest 400 460 38,000  Level Denver Center
Sat 11:14:13 PM 37.2883 -109.6717 237° Southwest 394 453 38,000  Level Denver Center
Sat 11:15:14 PM 37.2236 -109.8028 238° Southwest 397 457 38,000  Level Denver Center
Sat 11:16:14 PM 37.1692 -109.9131 238° Southwest 392 451 38,000  Level Denver Center
Sat 11:17:15 PM 37.1150 -110.0247 239° Southwest 393 452 38,000  Level Denver Center
Sat 11:18:15 PM 37.0514 -110.1533 238° Southwest 390 449 38,000  Level Denver Center
Sat 11:19:16 PM 36.9958 -110.2631 238° Southwest 388 447 38,000  Level Denver Center
Sat 11:20:17 PM 36.9394 -110.3783 239° Southwest 388 447 38,000  Level Denver Center
Sat 11:21:17 PM 36.8814 -110.4922 238° Southwest 389 448 38,000  Level Denver Center
Sat 11:22:18 PM 36.8244 -110.6069 238° Southwest 388 447 38,000  Level Denver Center
Sat 11:23:18 PM 36.7667 -110.7217 238° Southwest 391 450 38,000  Level Denver Center
Sat 11:24:19 PM 36.7089 -110.8356 238° Southwest 390 449 38,000  Level Denver Center
Sat 11:25:20 PM 36.6528 -110.9494 238° Southwest 387 445 38,000  Level Denver Center
Sat 11:26:20 PM 36.5931 -111.0639 237° Southwest 390 449 38,000  Level Denver Center
Sat 11:27:21 PM 36.5358 -111.1781 238° Southwest 390 449 38,000  Level Denver Center
Sat 11:28:21 PM 36.4758 -111.2939 237° Southwest 394 453 38,000  Level Denver Center
Sat 11:29:22 PM 36.4172 -111.4081 237° Southwest 393 452 38,000  Level Denver Center
Sat 11:30:22 PM 36.3575 -111.5242 237° Southwest 396 456 38,000  Level Denver Center
Sat 11:31:23 PM 36.2975 -111.6400 237° Southwest 399 459 38,000  Level Denver Center
Sat 11:32:23 PM 36.2392 -111.7519 237° Southwest 391 450 38,000  Level Denver Center
Sat 11:33:24 PM 36.1803 -111.8631 237° Southwest 387 445 38,000  Level Denver Center
Sat 11:34:18 PM 36.1347 -111.9508 237° Southwest 390 449 38,000  Level Los Angeles Center
Sat 11:35:20 PM 36.0633 -112.0864 237° Southwest 395 455 38,000  Level Los Angeles Center
Sat 11:36:21 PM 36.0042 -112.1997 237° Southwest 395 455 38,000  Level Los Angeles Center
Sat 11:37:22 PM 35.9408 -112.3189 237° Southwest 391 450 38,000  Level Los Angeles Center
Sat 11:38:23 PM 35.8850 -112.4264 237° Southwest 397 457 38,000  Level Los Angeles Center
Sat 11:39:24 PM 35.8131 -112.5622 237° Southwest 398 458 38,000  Level Los Angeles Center
Sat 11:40:25 PM 35.7536 -112.6725 236° Southwest 393 452 38,000  Level Los Angeles Center
Sat 11:41:26 PM 35.6944 -112.7825 237° Southwest 389 448 38,000  Level Los Angeles Center
Sat 11:42:28 PM 35.6294 -112.9047 237° Southwest 387 445 38,000  Level Los Angeles Center
Sat 11:43:29 PM 35.5725 -113.0092 236° Southwest 393 452 38,000  Level Los Angeles Center
Sat 11:44:30 PM 35.5114 -113.1222 236° Southwest 397 457 38,000  Level Los Angeles Center
Sat 11:45:31 PM 35.4503 -113.2356 237° Southwest 397 457 38,000  Level Los Angeles Center
Sat 11:46:32 PM 35.3853 -113.3550 236° Southwest 393 452 38,000  Level Los Angeles Center
Sat 11:47:33 PM 35.3256 -113.4636 236° Southwest 390 449 38,000  Level Los Angeles Center
Sat 11:48:34 PM 35.2653 -113.5731 236° Southwest 390 449 38,000  Level Los Angeles Center
Sat 11:49:35 PM 35.2053 -113.6831 236° Southwest 391 450 38,000  Level Los Angeles Center
Sat 11:50:37 PM 35.1453 -113.7925 236° Southwest 390 449 38,000  Level Los Angeles Center
Sat 11:51:38 PM 35.0847 -113.9025 236° Southwest 391 450 38,000  Level Los Angeles Center
Sat 11:52:39 PM 35.0136 -114.0319 236° Southwest 391 450 38,000 -344 Level Los Angeles Center
Sat 11:53:40 PM 34.9522 -114.1419 236° Southwest 390 449 37,300 -1,721 Descending Los Angeles Center
Sat 11:54:41 PM 34.8914 -114.2494 235° Southwest 386 444 34,500 -2,508 Descending Los Angeles Center
Sat 11:55:42 PM 34.8314 -114.3569 236° Southwest 384 442 32,200 -2,164 Descending Los Angeles Center
Sat 11:56:43 PM 34.7722 -114.4636 236° Southwest 381 438 30,100 -1,082 Descending Los Angeles Center
Sat 11:57:44 PM 34.6986 -114.5522 225° Southwest 373 429 30,000 -134 Descending Los Angeles Center
Sat 11:58:57 PM 34.6267 -114.6300 222° Southwest 370 426 29,800 -578 Descending Los Angeles Center
Sat 11:59:59 PM 34.5122 -114.7625 224° Southwest 407 468 28,700 -1,024 Descending Los Angeles Center
Sun 12:01:00 AM 34.4297 -114.8564 223° Southwest 408 470 27,700 -1,033 Descending Los Angeles Center
Sun 12:02:01 AM 34.3481 -114.9497 223° Southwest 404 465 26,600 -836 Descending Los Angeles Center
Sun 12:03:02 AM 34.2658 -115.0417 223° Southwest 403 464 26,000 -295 Descending Los Angeles Center
Sun 12:04:03 AM 34.1850 -115.1331 223° Southwest 399 459 26,000  Level Los Angeles Center
Sun 12:05:04 AM 34.1042 -115.2242 223° Southwest 397 457 26,000  Level Los Angeles Center
Sun 12:06:05 AM 34.0233 -115.3158 223° Southwest 398 458 26,000  Level Los Angeles Center
Sun 12:07:06 AM 33.9425 -115.4069 223° Southwest 398 458 26,000  Level Los Angeles Center
Sun 12:08:07 AM 33.8611 -115.4975 223° Southwest 398 458 26,000  Level Los Angeles Center
Sun 12:09:08 AM 33.7808 -115.5889 223° Southwest 398 458 26,000 -492 Level Los Angeles Center
Sun 12:10:09 AM 33.6994 -115.6792 223° Southwest 400 460 25,000 -885 Descending Los Angeles Center
Sun 12:11:10 AM 33.6356 -115.7500 223° Southwest 395 455 24,200 -1,082 Descending Los Angeles Center
Sun 12:12:11 AM 33.5242 -115.8739 223° Southwest 390 449 22,800 -1,180 Descending Los Angeles Center
Sun 12:13:12 AM 33.4456 -115.9608 223° Southwest 386 444 21,800 -1,033 Descending Los Angeles Center
Sun 12:14:13 AM 33.3672 -116.0469 223° Southwest 384 442 20,700 -1,033 Descending Los Angeles Center
Sun 12:15:14 AM 33.2917 -116.1300 223° Southwest 373 429 19,700 -984 Descending Los Angeles Center
Sun 12:16:15 AM 33.2167 -116.2131 223° Southwest 368 423 18,700 -1,623 Descending Los Angeles Center
Sun 12:17:16 AM 33.1414 -116.2942 222° Southwest 367 422 16,400 -2,361 Descending Los Angeles Center
Sun 12:18:17 AM 33.0697 -116.3739 223° Southwest 359 413 13,900 -2,164 Descending Los Angeles Center
Sun 12:19:18 AM 32.9897 -116.4528 220° Southwest 347 399 12,000 -1,377 Descending Los Angeles Center
Sun 12:20:19 AM 32.9033 -116.5033 206° Southwest 346 398 11,100 -934 Descending Los Angeles Center
Sun 12:21:20 AM 32.8303 -116.5600 213° Southwest 304 350 10,100 -843 Descending Los Angeles Center
Sun 12:22:20 AM 32.7958 -116.6325 241° Southwest 259 298 9,400 -992 Descending Los Angeles Center
Sun 12:23:21 AM 32.7611 -116.7033 240° Southwest 249 287 8,100 -1,279 Descending Los Angeles Center
Sun 12:24:22 AM 32.7272 -116.7769 241° Southwest 252 290 6,800 -1,328 Descending Los Angeles Center
Sun 12:25:23 AM 32.6967 -116.8478 243° Southwest 246 283 5,400 -1,033 Descending Los Angeles Center
Sun 12:26:24 AM 32.6761 -116.9192 251° West 234 269 4,700 -934 Descending Los Angeles Center
Sun 12:27:25 AM 32.6836 -116.9833 278° West 205 236 3,500 -1,266 Descending Los Angeles Center
Sun 12:28:32 AM 32.7000 -117.0500 286° West 182 209 2,000 -945 Descending Southern California TRACON
Sun 12:29:32 AM 32.7167 -117.1000 292° West 146 168 1,500 -650 Descending Southern California TRACON
Sun 12:30:32 AM 32.7167 -117.1500 270° West 147 169 700 -672 Descending Southern California TRACON
Sun 12:31:28 AM 32.7344 -117.1894 298° West 144 166 200 -536 Descending Los Angeles Center
Sun 12:33:00 AM 32.7333 -117.1833 281° West  Level FlightAware Approximate

Login

Don't have an account? Register now (free) for customized features, flight alerts, and more!